Time;durP1;ratioP1;P1;durP2;ratioP2;P2;SDS_P1;SDS_P2;PMS_P1;PMS_P2;Temp;Humidity;BMP_temperature;BMP_pressure;BME280_temperature;BME280_humidity;BME280_pressure;Samples;Min_cycle;Max_cycle;Signal;HPM_P1;HPM_P2
2022/06/17 00:00:16;;;;;;;;;;;22.20;41.50;;;;;;5013234;28;19931;-64
2022/06/17 00:02:43;;;;;;;;;;;22.20;41.50;;;;;;5008813;28;19925;-65
2022/06/17 00:05:10;;;;;;;;;;;22.20;41.50;;;;;;5022782;28;19933;-64
2022/06/17 00:07:38;;;;;;;;;;;22.20;41.50;;;;;;5011093;28;19979;-64
2022/06/17 00:10:06;;;;;;;;;;;22.20;41.50;;;;;;5009660;28;19925;-65
2022/06/17 00:12:33;;;;;;;;;;;22.20;41.40;;;;;;5012976;28;19971;-65
2022/06/17 00:15:15;;;;;;;;;;;22.20;41.50;;;;;;5014759;28;19979;-64
2022/06/17 00:17:43;;;;;;;;;;;22.20;41.40;;;;;;5030318;28;19929;-65
2022/06/17 00:20:11;;;;;;;;;;;22.20;41.40;;;;;;5013169;28;20342;-64
2022/06/17 00:22:40;;;;;;;;;;;22.10;41.30;;;;;;5031095;28;19932;-65
2022/06/17 00:25:10;;;;;;;;;;;22.10;41.30;;;;;;5025445;28;19929;-65
2022/06/17 00:27:37;;;;;;;;;;;22.10;41.30;;;;;;5012240;28;20572;-65
2022/06/17 00:30:06;;;;;;;;;;;22.10;41.90;;;;;;5012678;28;20016;-65
2022/06/17 00:32:33;;;;;;;;;;;22.10;41.30;;;;;;5013795;28;20279;-65
2022/06/17 00:34:59;;;;;;;;;;;22.10;41.40;;;;;;5030324;28;19992;-65
2022/06/17 00:37:26;;;;;;;;;;;22.10;41.40;;;;;;5026736;28;19968;-65
2022/06/17 00:39:54;;;;;;;;;;;22.10;41.40;;;;;;5030940;28;19964;-65
2022/06/17 00:42:21;;;;;;;;;;;22.10;41.60;;;;;;5011204;28;19963;-65
2022/06/17 00:44:49;;;;;;;;;;;22.10;42.60;;;;;;5006482;28;19952;-65
2022/06/17 00:47:18;;;;;;;;;;;22.00;44.20;;;;;;5028083;28;20005;-64
2022/06/17 00:49:45;;;;;;;;;;;22.00;45.10;;;;;;5017910;28;19924;-64
2022/06/17 00:52:15;;;;;;;;;;;22.00;46.20;;;;;;5024301;28;20390;-64
2022/06/17 00:54:43;;;;;;;;;;;22.00;45.10;;;;;;5026571;28;19988;-65
2022/06/17 00:57:19;;;;;;;;;;;22.10;44.60;;;;;;5009707;28;19925;-65
2022/06/17 01:00:00;;;;;;;;;;;22.00;44.40;;;;;;5012657;28;19979;-65
2022/06/17 01:02:27;;;;;;;;;;;22.00;44.10;;;;;;5021080;28;19929;-65
2022/06/17 01:04:54;;;;;;;;;;;21.90;43.50;;;;;;5043984;28;19948;-65
2022/06/17 01:07:21;;;;;;;;;;;22.00;43.50;;;;;;5029503;28;19976;-65
2022/06/17 01:10:01;;;;;;;;;;;22.10;43.80;;;;;;5014339;28;19979;-65
2022/06/17 01:12:30;;;;;;;;;;;22.00;43.70;;;;;;5023016;28;20291;-65
2022/06/17 01:14:57;;;;;;;;;;;21.80;44.50;;;;;;5028906;28;19979;-65
2022/06/17 01:17:24;;;;;;;;;;;22.00;44.60;;;;;;5016244;28;19948;-65
2022/06/17 01:19:51;;;;;;;;;;;22.00;45.10;;;;;;5046088;28;19965;-65
2022/06/17 01:22:20;;;;;;;;;;;22.00;42.40;;;;;;5032829;28;19929;-65
2022/06/17 01:24:49;;;;;;;;;;;21.90;41.70;;;;;;5021593;28;20022;-65
2022/06/17 01:27:16;;;;;;;;;;;21.90;41.50;;;;;;5025256;28;20366;-65
2022/06/17 01:29:43;;;;;;;;;;;21.90;41.60;;;;;;5036077;28;19964;-66
2022/06/17 01:32:10;;;;;;;;;;;22.00;41.70;;;;;;5024855;28;19964;-65
2022/06/17 01:34:37;;;;;;;;;;;22.00;41.60;;;;;;4998635;28;20032;-65
2022/06/17 01:37:04;;;;;;;;;;;21.90;41.90;;;;;;5009262;28;20340;-65
2022/06/17 01:39:30;;;;;;;;;;;21.90;41.90;;;;;;5026564;28;20382;-65
2022/06/17 01:41:58;;;;;;;;;;;21.90;41.90;;;;;;5014589;28;19965;-65
2022/06/17 01:44:26;;;;;;;;;;;21.90;41.90;;;;;;4992701;28;19972;-65
2022/06/17 01:46:54;;;;;;;;;;;21.90;41.90;;;;;;5025605;28;19979;-65
2022/06/17 01:49:21;;;;;;;;;;;21.90;42.20;;;;;;5000849;28;19929;-65
2022/06/17 01:51:48;;;;;;;;;;;21.90;42.10;;;;;;5012349;28;20349;-65
2022/06/17 01:54:16;;;;;;;;;;;22.00;41.80;;;;;;5012136;28;19925;-65
2022/06/17 01:56:43;;;;;;;;;;;22.00;42.00;;;;;;5008198;28;19925;-65
2022/06/17 01:59:12;;;;;;;;;;;21.90;42.00;;;;;;5004327;28;20397;-65
2022/06/17 02:01:39;;;;;;;;;;;21.90;42.00;;;;;;5008328;28;20444;-65
2022/06/17 02:04:25;;;;;;;;;;;21.90;42.00;;;;;;5022284;28;19967;-65
2022/06/17 02:06:54;;;;;;;;;;;21.90;42.30;;;;;;5007954;28;19933;-65
2022/06/17 02:09:20;;;;;;;;;;;21.80;42.90;;;;;;5022448;28;19929;-65
2022/06/17 02:11:47;;;;;;;;;;;21.90;43.30;;;;;;5012578;28;19979;-65
2022/06/17 02:14:15;;;;;;;;;;;21.80;43.20;;;;;;5012523;28;20023;-65
2022/06/17 02:16:42;;;;;;;;;;;21.80;42.80;;;;;;5008698;28;20007;-65
2022/06/17 02:19:09;;;;;;;;;;;21.80;42.60;;;;;;5002561;28;19925;-65
2022/06/17 02:21:39;;;;;;;;;;;21.80;43.20;;;;;;5040658;28;19991;-65
2022/06/17 02:24:06;;;;;;;;;;;21.80;43.00;;;;;;5031392;28;19971;-65
2022/06/17 02:26:33;;;;;;;;;;;21.90;42.90;;;;;;5023414;28;19926;-65
2022/06/17 02:29:00;;;;;;;;;;;21.80;43.60;;;;;;5029118;28;19932;-65
2022/06/17 02:31:28;;;;;;;;;;;21.90;44.20;;;;;;5033100;28;19960;-65
2022/06/17 02:33:54;;;;;;;;;;;21.80;44.10;;;;;;5014221;28;19933;-65
2022/06/17 02:36:22;;;;;;;;;;;21.90;44.90;;;;;;5015420;28;19991;-65
2022/06/17 02:38:49;;;;;;;;;;;21.80;44.70;;;;;;5016648;28;19925;-65
2022/06/17 02:41:19;;;;;;;;;;;21.80;44.60;;;;;;5033589;28;19956;-66
2022/06/17 02:43:46;;;;;;;;;;;21.70;43.00;;;;;;5030946;28;20101;-66
2022/06/17 02:46:15;;;;;;;;;;;21.80;42.60;;;;;;5017038;28;20032;-66
2022/06/17 02:48:45;;;;;;;;;;;21.80;42.50;;;;;;5032375;28;19936;-66
2022/06/17 02:51:12;;;;;;;;;;;21.80;42.80;;;;;;5017068;28;20378;-66
2022/06/17 02:53:38;;;;;;;;;;;21.80;42.60;;;;;;5006946;28;19965;-66
2022/06/17 02:56:06;;;;;;;;;;;21.80;42.20;;;;;;5044043;28;20351;-66
2022/06/17 02:58:36;;;;;;;;;;;21.80;42.10;;;;;;5027512;28;19929;-66
2022/06/17 03:01:02;;;;;;;;;;;21.80;42.00;;;;;;5029620;28;19933;-66
2022/06/17 03:03:29;;;;;;;;;;;21.80;42.00;;;;;;5014477;28;19955;-66
2022/06/17 03:05:57;;;;;;;;;;;21.80;42.00;;;;;;5009423;28;19936;-66
2022/06/17 03:08:25;;;;;;;;;;;21.80;42.10;;;;;;5035385;28;19925;-64
2022/06/17 03:10:52;;;;;;;;;;;21.80;42.20;;;;;;5032763;28;20589;-65
2022/06/17 03:13:20;;;;;;;;;;;21.70;42.10;;;;;;5017852;28;19925;-65
2022/06/17 03:15:47;;;;;;;;;;;21.80;42.20;;;;;;5014752;28;19925;-65
2022/06/17 03:18:14;;;;;;;;;;;21.80;42.20;;;;;;5014161;28;20342;-65
2022/06/17 03:20:41;;;;;;;;;;;21.80;42.30;;;;;;5028287;28;19929;-65
2022/06/17 03:23:10;;;;;;;;;;;21.90;42.40;;;;;;5033580;28;20461;-65
2022/06/17 03:25:38;;;;;;;;;;;21.70;42.40;;;;;;5033386;28;20301;-65
2022/06/17 03:28:07;;;;;;;;;;;21.70;42.50;;;;;;5023464;28;19983;-65
2022/06/17 03:30:34;;;;;;;;;;;21.70;42.40;;;;;;5031847;28;19932;-65
2022/06/17 03:33:04;;;;;;;;;;;21.80;42.20;;;;;;5014718;28;19991;-65
2022/06/17 03:35:31;;;;;;;;;;;21.70;42.00;;;;;;5008453;28;20004;-65
2022/06/17 03:37:59;;;;;;;;;;;21.80;42.20;;;;;;5005614;28;19984;-65
2022/06/17 03:40:28;;;;;;;;;;;21.70;42.10;;;;;;5009214;28;19983;-65
2022/06/17 03:42:56;;;;;;;;;;;21.70;42.00;;;;;;5032636;28;19979;-64
2022/06/17 03:45:23;;;;;;;;;;;21.70;41.90;;;;;;5028775;28;20440;-65
2022/06/17 03:47:51;;;;;;;;;;;21.70;41.90;;;;;;5031553;28;19979;-65
2022/06/17 03:50:19;;;;;;;;;;;21.70;41.80;;;;;;5028228;28;19925;-65
2022/06/17 03:52:48;;;;;;;;;;;21.70;41.70;;;;;;5023293;28;19925;-65
2022/06/17 03:55:15;;;;;;;;;;;21.70;41.70;;;;;;5013720;28;19926;-65
2022/06/17 03:57:44;;;;;;;;;;;21.70;41.70;;;;;;5003571;28;19935;-65
2022/06/17 04:00:12;;;;;;;;;;;21.70;41.60;;;;;;5029266;28;19972;-65
2022/06/17 04:02:39;;;;;;;;;;;21.80;41.70;;;;;;5002814;28;19979;-65
2022/06/17 04:05:09;;;;;;;;;;;21.80;41.70;;;;;;5026496;28;19968;-65
2022/06/17 04:07:35;;;;;;;;;;;21.80;41.70;;;;;;5021375;28;19980;-65
2022/06/17 04:10:02;;;;;;;;;;;21.80;41.70;;;;;;5021732;28;20417;-66
2022/06/17 04:12:29;;;;;;;;;;;21.80;41.70;;;;;;5030787;28;19933;-66
2022/06/17 04:14:58;;;;;;;;;;;21.80;41.70;;;;;;5004469;28;19932;-66
2022/06/17 04:17:27;;;;;;;;;;;21.80;41.80;;;;;;5029871;28;19932;-66
2022/06/17 04:19:56;;;;;;;;;;;21.80;41.80;;;;;;5008348;28;19932;-66
2022/06/17 04:22:23;;;;;;;;;;;21.70;41.70;;;;;;5010350;28;20513;-65
2022/06/17 04:24:52;;;;;;;;;;;21.70;41.70;;;;;;5013473;28;19940;-66
2022/06/17 04:27:19;;;;;;;;;;;21.80;41.80;;;;;;5040570;28;20287;-66
2022/06/17 04:29:47;;;;;;;;;;;21.70;41.70;;;;;;5023869;28;19935;-66
2022/06/17 04:32:16;;;;;;;;;;;21.80;41.90;;;;;;5005970;28;19948;-65
2022/06/17 04:34:43;;;;;;;;;;;21.80;41.90;;;;;;5027748;28;19929;-65
2022/06/17 04:37:17;;;;;;;;;;;21.70;41.80;;;;;;5002445;28;19964;-65
2022/06/17 04:39:45;;;;;;;;;;;21.70;41.80;;;;;;5010781;28;19928;-65
2022/06/17 04:42:13;;;;;;;;;;;21.80;41.90;;;;;;5014813;28;19960;-65
2022/06/17 04:44:40;;;;;;;;;;;21.70;41.90;;;;;;5011451;28;19968;-65
2022/06/17 04:47:07;;;;;;;;;;;21.80;42.10;;;;;;5013531;28;20379;-65
2022/06/17 04:49:37;;;;;;;;;;;21.70;42.00;;;;;;5027249;28;20064;-65
2022/06/17 04:52:04;;;;;;;;;;;21.70;42.10;;;;;;5028603;28;19925;-64
2022/06/17 04:54:31;;;;;;;;;;;21.70;42.20;;;;;;5012843;28;19925;-64
2022/06/17 04:56:58;;;;;;;;;;;21.70;42.20;;;;;;5032149;28;19956;-64
2022/06/17 04:59:30;;;;;;;;;;;21.80;42.30;;;;;;5009988;28;19925;-64
2022/06/17 05:01:57;;;;;;;;;;;21.70;42.40;;;;;;5008351;28;19925;-65
2022/06/17 05:04:24;;;;;;;;;;;21.70;42.50;;;;;;5010444;28;19987;-65
2022/06/17 05:06:52;;;;;;;;;;;21.80;42.60;;;;;;5012877;28;19979;-64
2022/06/17 05:09:20;;;;;;;;;;;21.80;42.70;;;;;;5013839;28;19948;-64
2022/06/17 05:11:47;;;;;;;;;;;21.70;42.60;;;;;;5010886;28;19925;-64
2022/06/17 05:14:14;;;;;;;;;;;21.70;42.60;;;;;;5032110;28;19925;-65
2022/06/17 05:16:41;;;;;;;;;;;21.80;42.80;;;;;;5013418;28;20019;-64
2022/06/17 05:19:07;;;;;;;;;;;21.70;42.80;;;;;;5036963;28;20425;-64
2022/06/17 05:21:34;;;;;;;;;;;21.80;42.90;;;;;;5029414;28;19968;-65
2022/06/17 05:24:02;;;;;;;;;;;21.80;42.20;;;;;;5002548;28;19932;-64
2022/06/17 05:26:30;;;;;;;;;;;21.70;42.70;;;;;;5017985;28;19960;-64
2022/06/17 05:28:57;;;;;;;;;;;21.70;42.70;;;;;;5014748;28;20385;-64
2022/06/17 05:31:24;;;;;;;;;;;21.80;42.80;;;;;;5029733;28;20422;-65
2022/06/17 05:33:50;;;;;;;;;;;21.80;42.80;;;;;;5022311;28;20365;-65
2022/06/17 05:36:17;;;;;;;;;;;21.70;42.70;;;;;;5018624;28;19979;-63
2022/06/17 05:38:44;;;;;;;;;;;21.70;42.20;;;;;;5013806;28;19939;-65
2022/06/17 05:41:12;;;;;;;;;;;21.80;42.80;;;;;;5013897;28;19925;-65
2022/06/17 05:43:39;;;;;;;;;;;21.70;42.60;;;;;;5013070;28;19975;-65
2022/06/17 05:46:06;;;;;;;;;;;21.70;42.70;;;;;;5023141;28;20015;-66
2022/06/17 05:48:32;;;;;;;;;;;21.80;42.80;;;;;;5029976;28;20413;-65
2022/06/17 05:50:59;;;;;;;;;;;21.80;42.70;;;;;;5030097;28;19929;-65
2022/06/17 05:53:26;;;;;;;;;;;21.70;42.10;;;;;;5016307;28;19976;-62
2022/06/17 05:55:54;;;;;;;;;;;21.80;42.70;;;;;;5030492;28;20390;-62
2022/06/17 05:58:22;;;;;;;;;;;21.80;42.60;;;;;;5018793;28;20425;-63
2022/06/17 06:00:50;;;;;;;;;;;21.70;42.50;;;;;;5014801;28;20383;-63
2022/06/17 06:03:17;;;;;;;;;;;21.80;42.60;;;;;;5037713;28;19929;-63
2022/06/17 06:05:46;;;;;;;;;;;21.80;42.60;;;;;;5049084;28;19925;-63
2022/06/17 06:08:16;;;;;;;;;;;21.80;42.50;;;;;;5013416;28;20386;-63
2022/06/17 06:10:43;;;;;;;;;;;21.80;42.50;;;;;;5052085;28;20468;-63
2022/06/17 06:13:13;;;;;;;;;;;21.80;42.50;;;;;;5006904;28;19947;-63
2022/06/17 06:15:42;;;;;;;;;;;21.70;42.40;;;;;;5031548;28;20013;-63
2022/06/17 06:18:09;;;;;;;;;;;21.70;42.40;;;;;;5005031;28;20350;-63
2022/06/17 06:20:35;;;;;;;;;;;21.70;42.30;;;;;;5029603;28;19925;-63
2022/06/17 06:23:02;;;;;;;;;;;21.70;42.30;;;;;;5009171;28;20015;-63
2022/06/17 06:25:29;;;;;;;;;;;21.70;42.30;;;;;;5023995;28;19961;-63
2022/06/17 06:27:56;;;;;;;;;;;21.80;42.40;;;;;;5012803;28;19929;-63
2022/06/17 06:30:23;;;;;;;;;;;21.80;42.50;;;;;;5015511;28;19961;-63
2022/06/17 06:32:52;;;;;;;;;;;21.80;42.40;;;;;;5024467;28;19964;-63
2022/06/17 06:35:22;;;;;;;;;;;21.80;42.40;;;;;;5024435;28;19925;-63
2022/06/17 06:37:49;;;;;;;;;;;21.80;42.40;;;;;;5016063;28;19966;-63
2022/06/17 06:40:16;;;;;;;;;;;21.80;42.30;;;;;;5017706;28;19932;-63
2022/06/17 06:42:42;;;;;;;;;;;21.70;42.30;;;;;;5030344;28;19926;-63
2022/06/17 06:45:12;;;;;;;;;;;21.70;42.20;;;;;;5030339;28;19929;-63
2022/06/17 06:47:39;;;;;;;;;;;21.80;42.30;;;;;;5021999;28;20409;-64
2022/06/17 06:50:10;;;;;;;;;;;21.70;42.20;;;;;;5017476;28;19968;-63
2022/06/17 06:52:39;;;;;;;;;;;21.80;42.20;;;;;;5038790;28;19925;-63
2022/06/17 06:55:06;;;;;;;;;;;21.70;42.10;;;;;;5018448;28;20043;-63
2022/06/17 06:57:33;;;;;;;;;;;21.70;42.10;;;;;;5006005;28;19940;-63
2022/06/17 07:00:01;;;;;;;;;;;21.70;42.10;;;;;;5008094;28;19999;-63
2022/06/17 07:02:27;;;;;;;;;;;21.70;42.00;;;;;;5028838;28;19975;-63
2022/06/17 07:04:54;;;;;;;;;;;21.70;42.00;;;;;;5012411;28;19940;-63
2022/06/17 07:07:22;;;;;;;;;;;21.70;42.00;;;;;;5039759;28;20371;-63
2022/06/17 07:09:49;;;;;;;;;;;21.70;41.90;;;;;;5043874;28;19968;-63
2022/06/17 07:12:15;;;;;;;;;;;21.70;41.90;;;;;;5010675;28;19929;-63
2022/06/17 07:14:45;;;;;;;;;;;21.70;41.90;;;;;;5020599;28;19930;-63
2022/06/17 07:17:12;;;;;;;;;;;21.70;41.90;;;;;;5014986;28;20551;-63
2022/06/17 07:19:39;;;;;;;;;;;21.70;42.50;;;;;;5012364;28;19960;-63
2022/06/17 07:22:06;;;;;;;;;;;21.70;41.90;;;;;;5009724;28;19933;-63
2022/06/17 07:24:35;;;;;;;;;;;21.70;41.80;;;;;;5033637;28;19931;-63
2022/06/17 07:27:01;;;;;;;;;;;21.70;41.80;;;;;;5016889;28;19932;-63
2022/06/17 07:29:28;;;;;;;;;;;21.70;41.70;;;;;;5010778;28;19972;-63
2022/06/17 07:31:55;;;;;;;;;;;21.70;41.70;;;;;;5012794;28;19925;-63
2022/06/17 07:34:22;;;;;;;;;;;21.70;41.70;;;;;;5022667;28;20283;-63
2022/06/17 07:42:18;;;;;;;;;;;21.70;41.60;;;;;;5002738;28;19929;-63
2022/06/17 07:44:45;;;;;;;;;;;21.70;41.50;;;;;;5031603;28;19933;-63
2022/06/17 07:47:13;;;;;;;;;;;21.70;41.50;;;;;;5016417;28;19957;-63
2022/06/17 07:49:40;;;;;;;;;;;21.70;41.70;;;;;;5016568;28;19937;-63
2022/06/17 07:52:07;;;;;;;;;;;21.70;41.50;;;;;;5016756;28;19925;-63
2022/06/17 07:54:35;;;;;;;;;;;21.70;41.60;;;;;;5021372;28;19944;-63
2022/06/17 07:57:02;;;;;;;;;;;21.70;41.50;;;;;;5031087;28;19930;-63
2022/06/17 07:59:28;;;;;;;;;;;21.70;41.60;;;;;;5005103;28;20406;-63
2022/06/17 08:01:55;;;;;;;;;;;21.70;41.60;;;;;;5034043;28;19928;-62
2022/06/17 08:04:22;;;;;;;;;;;21.70;41.60;;;;;;5020768;28;19996;-63
2022/06/17 08:06:50;;;;;;;;;;;21.70;41.60;;;;;;5027383;28;19932;-63
2022/06/17 08:09:17;;;;;;;;;;;21.80;41.70;;;;;;5029006;28;19925;-63
2022/06/17 08:11:45;;;;;;;;;;;21.80;41.70;;;;;;5016683;28;20012;-63
2022/06/17 08:14:12;;;;;;;;;;;21.80;41.80;;;;;;5016696;28;19929;-63
2022/06/17 08:16:38;;;;;;;;;;;21.80;41.80;;;;;;5003575;28;20399;-63
2022/06/17 08:19:07;;;;;;;;;;;21.70;41.70;;;;;;5016413;28;19933;-63
2022/06/17 08:21:34;;;;;;;;;;;21.70;41.80;;;;;;5016376;28;19931;-63
2022/06/17 08:24:01;;;;;;;;;;;21.70;41.80;;;;;;5043948;28;19925;-63
2022/06/17 08:26:27;;;;;;;;;;;21.80;42.00;;;;;;5011150;28;20035;-63
2022/06/17 08:28:55;;;;;;;;;;;21.80;41.90;;;;;;5005655;28;19933;-63
2022/06/17 08:31:24;;;;;;;;;;;21.70;41.90;;;;;;5026153;28;19930;-64
2022/06/17 08:33:50;;;;;;;;;;;21.80;42.00;;;;;;5012290;28;19932;-63
2022/06/17 08:36:18;;;;;;;;;;;21.70;41.90;;;;;;5014852;28;20052;-63
2022/06/17 08:38:45;;;;;;;;;;;21.80;42.00;;;;;;5024209;28;20317;-64
2022/06/17 08:41:15;;;;;;;;;;;21.80;42.00;;;;;;5007889;28;20031;-63
2022/06/17 08:43:45;;;;;;;;;;;21.80;42.00;;;;;;4995890;28;19965;-63
2022/06/17 08:46:14;;;;;;;;;;;21.80;42.00;;;;;;5013882;28;19925;-63
2022/06/17 08:48:54;;;;;;;;;;;21.80;42.00;;;;;;5024953;28;19971;-63
2022/06/17 08:51:25;;;;;;;;;;;21.80;42.00;;;;;;5030336;28;19925;-63
2022/06/17 08:54:06;;;;;;;;;;;21.80;42.00;;;;;;5022845;28;19925;-63
2022/06/17 08:56:34;;;;;;;;;;;21.80;42.10;;;;;;5016308;28;19932;-63
2022/06/17 08:59:04;;;;;;;;;;;21.80;42.10;;;;;;5021302;28;19976;-63
2022/06/17 09:01:34;;;;;;;;;;;21.90;42.10;;;;;;5015203;28;19925;-63
2022/06/17 09:04:07;;;;;;;;;;;21.90;42.20;;;;;;5014839;28;19944;-63
2022/06/17 09:06:38;;;;;;;;;;;21.90;42.30;;;;;;5033444;28;19925;-63
2022/06/17 09:09:40;;;;;;;;;;;21.90;42.30;;;;;;5029341;28;20451;-64
2022/06/17 09:12:10;;;;;;;;;;;21.90;42.30;;;;;;4959359;28;19926;-63
2022/06/17 09:14:39;;;;;;;;;;;21.90;42.30;;;;;;4957071;28;20416;-63
2022/06/17 09:17:14;;;;;;;;;;;21.90;42.40;;;;;;4988218;28;19937;-64
2022/06/17 09:19:45;;;;;;;;;;;21.90;42.30;;;;;;5023835;28;19933;-63
2022/06/17 09:22:13;;;;;;;;;;;21.90;42.40;;;;;;5005021;28;19987;-63
2022/06/17 09:24:41;;;;;;;;;;;21.90;42.40;;;;;;5016139;28;19961;-63
2022/06/17 09:27:09;;;;;;;;;;;21.90;42.40;;;;;;5019602;28;19960;-63
2022/06/17 09:29:37;;;;;;;;;;;21.90;42.40;;;;;;5016307;28;19925;-63
2022/06/17 09:32:05;;;;;;;;;;;21.90;42.40;;;;;;5009015;28;19972;-63
2022/06/17 09:34:37;;;;;;;;;;;21.90;42.40;;;;;;5026512;28;19925;-63
2022/06/17 09:37:05;;;;;;;;;;;22.00;42.50;;;;;;5007934;28;20405;-63
2022/06/17 09:39:34;;;;;;;;;;;21.90;42.50;;;;;;5011081;28;19936;-63
2022/06/17 09:42:02;;;;;;;;;;;22.00;43.10;;;;;;5012021;28;19925;-64
2022/06/17 09:44:32;;;;;;;;;;;22.00;42.50;;;;;;5008726;28;19925;-63
2022/06/17 09:47:03;;;;;;;;;;;22.00;42.50;;;;;;5009917;28;19925;-63
2022/06/17 09:49:30;;;;;;;;;;;22.00;42.50;;;;;;5006967;28;19925;-63
2022/06/17 09:52:02;;;;;;;;;;;22.00;42.60;;;;;;5024270;28;19975;-64
2022/06/17 09:54:29;;;;;;;;;;;22.00;42.50;;;;;;5012452;28;19929;-63
2022/06/17 09:56:56;;;;;;;;;;;22.00;42.60;;;;;;5019078;28;20386;-64
2022/06/17 09:59:24;;;;;;;;;;;22.00;42.60;;;;;;5023533;28;19932;-64
2022/06/17 10:01:51;;;;;;;;;;;22.00;42.60;;;;;;5025561;28;19932;-63
2022/06/17 10:04:18;;;;;;;;;;;22.00;42.50;;;;;;5004597;28;19932;-63
2022/06/17 10:06:48;;;;;;;;;;;22.00;42.50;;;;;;5031151;28;19932;-63
2022/06/17 10:09:26;;;;;;;;;;;22.00;42.50;;;;;;5013231;28;19975;-63
2022/06/17 10:11:54;;;;;;;;;;;22.00;42.60;;;;;;5016267;28;20279;-63
2022/06/17 10:14:24;;;;;;;;;;;22.00;42.50;;;;;;5008743;28;19933;-63
2022/06/17 10:19:39;;;;;;;;;;;22.10;42.70;;;;;;5014458;28;19925;-63
2022/06/17 10:22:13;;;;;;;;;;;22.00;42.60;;;;;;5010752;28;19925;-63
2022/06/17 10:24:45;;;;;;;;;;;22.10;42.70;;;;;;5025392;28;19925;-63
2022/06/17 10:27:15;;;;;;;;;;;22.10;42.70;;;;;;5010720;28;20445;-64
2022/06/17 10:29:50;;;;;;;;;;;22.10;42.70;;;;;;5005423;28;19926;-64
2022/06/17 10:32:17;;;;;;;;;;;22.10;42.70;;;;;;5007869;28;19925;-63
2022/06/17 10:34:44;;;;;;;;;;;22.10;42.70;;;;;;5013914;28;19929;-63
2022/06/17 10:37:11;;;;;;;;;;;22.10;42.70;;;;;;5010597;28;19929;-63
2022/06/17 10:39:39;;;;;;;;;;;22.10;42.60;;;;;;5022181;28;19929;-65
2022/06/17 10:42:08;;;;;;;;;;;22.10;42.70;;;;;;5006946;28;19932;-65
2022/06/17 10:44:35;;;;;;;;;;;22.10;42.60;;;;;;5023200;28;20282;-65
2022/06/17 10:47:15;;;;;;;;;;;22.10;42.60;;;;;;5033702;28;19925;-65
2022/06/17 10:49:43;;;;;;;;;;;22.10;42.60;;;;;;5012856;28;19987;-65
2022/06/17 10:52:11;;;;;;;;;;;22.10;42.60;;;;;;5034131;28;20031;-65
2022/06/17 10:54:39;;;;;;;;;;;22.10;42.70;;;;;;5015005;28;19925;-65
2022/06/17 10:57:08;;;;;;;;;;;22.10;42.60;;;;;;5034650;28;20004;-65
2022/06/17 10:59:36;;;;;;;;;;;22.10;42.60;;;;;;4998355;28;20387;-65
2022/06/17 11:02:03;;;;;;;;;;;22.10;42.60;;;;;;5019047;28;20301;-65
2022/06/17 11:04:30;;;;;;;;;;;22.10;42.50;;;;;;5015381;28;20370;-65
2022/06/17 11:06:58;;;;;;;;;;;22.10;42.60;;;;;;5041821;28;19964;-65
2022/06/17 11:09:26;;;;;;;;;;;22.10;42.50;;;;;;5015045;28;19945;-64
2022/06/17 11:12:05;;;;;;;;;;;22.10;42.50;;;;;;5031660;28;19932;-64
2022/06/17 11:14:36;;;;;;;;;;;22.20;42.60;;;;;;5028726;28;19975;-64
2022/06/17 11:17:03;;;;;;;;;;;22.20;42.60;;;;;;5022080;28;20329;-64
2022/06/17 11:19:29;;;;;;;;;;;22.10;42.50;;;;;;4999048;28;19929;-66
2022/06/17 11:21:58;;;;;;;;;;;22.20;42.60;;;;;;5033214;28;20298;-64
2022/06/17 11:24:26;;;;;;;;;;;22.20;42.60;;;;;;5011769;28;19979;-64
2022/06/17 11:27:00;;;;;;;;;;;22.20;42.50;;;;;;5031920;28;20046;-64
2022/06/17 11:29:34;;;;;;;;;;;22.20;42.60;;;;;;5015800;28;19925;-64
2022/06/17 11:32:04;;;;;;;;;;;22.20;42.60;;;;;;5033603;28;19971;-64
2022/06/17 11:34:32;;;;;;;;;;;22.20;42.50;;;;;;5047843;28;19999;-64
2022/06/17 11:36:59;;;;;;;;;;;22.20;42.50;;;;;;5016452;28;19940;-64
2022/06/17 11:39:28;;;;;;;;;;;22.20;42.50;;;;;;5016654;28;20303;-64
2022/06/17 11:41:55;;;;;;;;;;;22.20;42.50;;;;;;5016118;28;20024;-64
2022/06/17 11:44:24;;;;;;;;;;;22.20;42.50;;;;;;5042789;28;19979;-64
2022/06/17 11:46:52;;;;;;;;;;;22.20;42.50;;;;;;5024811;28;19931;-64
2022/06/17 11:49:20;;;;;;;;;;;22.20;42.50;;;;;;5014022;28;19979;-64
2022/06/17 11:51:48;;;;;;;;;;;22.20;42.50;;;;;;5014890;28;20007;-64
2022/06/17 11:54:18;;;;;;;;;;;22.20;42.50;;;;;;5032718;28;19925;-64
2022/06/17 11:56:46;;;;;;;;;;;22.20;42.50;;;;;;5018289;28;19932;-64
2022/06/17 11:59:13;;;;;;;;;;;22.20;42.50;;;;;;5007457;28;19929;-64
2022/06/17 12:01:40;;;;;;;;;;;22.20;42.50;;;;;;5032547;28;19933;-64
2022/06/17 12:04:07;;;;;;;;;;;22.20;42.50;;;;;;4999419;28;20371;-64
2022/06/17 12:06:45;;;;;;;;;;;22.20;42.50;;;;;;5015228;28;20445;-64
2022/06/17 12:09:13;;;;;;;;;;;22.20;42.50;;;;;;5014684;28;20383;-63
2022/06/17 12:11:42;;;;;;;;;;;22.20;42.50;;;;;;5028012;28;19925;-64
2022/06/17 12:14:11;;;;;;;;;;;22.20;42.50;;;;;;5045211;28;19960;-64
2022/06/17 12:16:39;;;;;;;;;;;22.20;42.50;;;;;;5015656;28;20011;-64
2022/06/17 12:19:06;;;;;;;;;;;22.30;42.60;;;;;;5033235;28;20454;-64
2022/06/17 12:21:34;;;;;;;;;;;22.20;42.50;;;;;;5005312;28;20321;-64
2022/06/17 12:24:04;;;;;;;;;;;22.20;42.50;;;;;;5032486;28;19925;-64
2022/06/17 12:26:32;;;;;;;;;;;22.30;42.60;;;;;;5031663;28;19929;-65
2022/06/17 12:29:00;;;;;;;;;;;22.30;42.70;;;;;;5032482;28;19929;-65
2022/06/17 12:31:33;;;;;;;;;;;22.30;42.70;;;;;;5045718;28;20341;-65
2022/06/17 12:34:03;;;;;;;;;;;22.30;42.70;;;;;;5026296;28;20433;-65
2022/06/17 12:36:30;;;;;;;;;;;22.30;42.70;;;;;;5014610;28;19926;-65
2022/06/17 12:38:58;;;;;;;;;;;22.30;42.70;;;;;;5014272;28;19933;-65
2022/06/17 12:41:28;;;;;;;;;;;22.30;43.30;;;;;;5013168;28;19925;-65
2022/06/17 12:44:01;;;;;;;;;;;22.30;42.70;;;;;;5014528;28;19962;-65
2022/06/17 12:46:28;;;;;;;;;;;22.30;42.70;;;;;;5022445;28;20148;-65
2022/06/17 12:48:56;;;;;;;;;;;22.30;42.70;;;;;;5030910;28;19929;-65
2022/06/17 12:54:11;;;;;;;;;;;22.30;42.70;;;;;;5028362;28;19936;-65
2022/06/17 12:56:41;;;;;;;;;;;22.30;42.70;;;;;;5012924;28;19921;-65
2022/06/17 12:59:28;;;;;;;;;;;22.30;42.70;;;;;;4995222;28;19929;-65
2022/06/17 13:01:57;;;;;;;;;;;22.30;42.70;;;;;;5026818;28;19960;-65
2022/06/17 13:04:27;;;;;;;;;;;22.30;42.70;;;;;;5014301;28;20429;-65
2022/06/17 13:07:03;;;;;;;;;;;22.30;42.70;;;;;;5029062;28;19987;-65
2022/06/17 13:09:33;;;;;;;;;;;22.30;42.70;;;;;;5015731;28;19925;-65
2022/06/17 13:12:06;;;;;;;;;;;22.30;42.70;;;;;;5017868;28;19952;-65
2022/06/17 13:14:35;;;;;;;;;;;22.30;42.70;;;;;;5032367;28;19932;-65
2022/06/17 13:17:03;;;;;;;;;;;22.30;42.70;;;;;;5031759;28;19979;-64
2022/06/17 13:19:32;;;;;;;;;;;22.30;42.70;;;;;;5014274;28;19925;-65
2022/06/17 13:22:00;;;;;;;;;;;22.30;42.70;;;;;;5019771;28;20417;-65
2022/06/17 13:24:28;;;;;;;;;;;22.30;42.70;;;;;;5031252;28;19925;-65
2022/06/17 13:26:57;;;;;;;;;;;22.30;42.70;;;;;;5012688;28;19952;-65
2022/06/17 13:29:27;;;;;;;;;;;22.30;42.80;;;;;;5030884;28;19964;-65
2022/06/17 13:31:54;;;;;;;;;;;22.30;42.70;;;;;;5029939;28;19972;-65
2022/06/17 13:34:23;;;;;;;;;;;22.30;42.80;;;;;;5042185;28;19925;-65
2022/06/17 13:36:51;;;;;;;;;;;22.30;42.70;;;;;;5011107;28;19933;-65
2022/06/17 13:39:18;;;;;;;;;;;22.30;42.80;;;;;;5026524;28;19925;-65
2022/06/17 13:41:46;;;;;;;;;;;22.30;42.80;;;;;;5010918;28;19929;-65
2022/06/17 13:44:16;;;;;;;;;;;22.30;42.80;;;;;;5011335;28;19925;-65
2022/06/17 13:46:46;;;;;;;;;;;22.30;42.80;;;;;;5004299;28;20011;-65
2022/06/17 13:49:13;;;;;;;;;;;22.30;42.80;;;;;;5013929;28;19932;-65
2022/06/17 13:51:40;;;;;;;;;;;22.30;42.80;;;;;;5013920;28;20020;-65
2022/06/17 13:54:09;;;;;;;;;;;22.30;42.80;;;;;;5014798;28;19975;-65
2022/06/17 13:56:41;;;;;;;;;;;22.30;42.80;;;;;;5005977;28;19925;-65
2022/06/17 13:59:08;;;;;;;;;;;22.30;42.80;;;;;;5027304;28;20004;-65
2022/06/17 14:01:44;;;;;;;;;;;22.40;42.90;;;;;;5012395;28;19925;-64
2022/06/17 14:04:19;;;;;;;;;;;22.30;42.80;;;;;;5030721;28;19929;-64
2022/06/17 14:06:57;;;;;;;;;;;22.30;42.90;;;;;;5023760;28;20333;-64
2022/06/17 14:09:25;;;;;;;;;;;22.30;42.90;;;;;;4999116;28;20267;-65
2022/06/17 14:11:52;;;;;;;;;;;22.40;42.90;;;;;;5026487;28;19929;-65
2022/06/17 14:14:38;;;;;;;;;;;22.40;43.00;;;;;;5030767;28;19936;-64
2022/06/17 14:17:10;;;;;;;;;;;22.40;42.90;;;;;;5022235;28;19929;-64
2022/06/17 14:19:40;;;;;;;;;;;22.40;43.00;;;;;;5024080;28;19925;-64
2022/06/17 14:22:07;;;;;;;;;;;22.40;43.00;;;;;;5002603;28;19972;-64
2022/06/17 14:24:53;;;;;;;;;;;22.40;43.00;;;;;;5013701;28;19921;-65
2022/06/17 14:27:34;;;;;;;;;;;22.40;43.00;;;;;;5016902;28;20235;-65
2022/06/17 14:30:16;;;;;;;;;;;22.40;43.00;;;;;;5024831;28;19956;-64
2022/06/17 14:32:55;;;;;;;;;;;22.30;42.90;;;;;;5048851;28;19929;-64
2022/06/17 14:35:28;;;;;;;;;;;22.40;43.00;;;;;;5034116;28;19925;-64